EDDL Airport Information

Runway Information
Runway 05L Length 8858 ft width 148 ft
Elevation 116 ft Threshold 984 ft Heading 53
Runway 23R Length 8858 ft Width 148 ft
Elevation 124 ft Threshold 984 ft Heading 233
Runway 05R Length 9842 ft width 148 ft
Elevation 121 ft Threshold 984 ft Heading 53
Runway 23L Length 9842 ft Width 148 ft
Elevation 138 ft Threshold 984 ft Heading 233
Airport Frequencies
Type ACC Name LANGEN RAD Frequency 128.55 MHZ
Type APP Name DIR Frequency 128.65 MHZ
Type ATIS Name ATIS Frequency 123.775 MHZ
Type CLD Name CLNC DEL Frequency 121.775 MHZ
Type GND Name GND Frequency 121.9 MHZ
Type INFO Name LANGEN INF Frequency 129.875 MHZ
Type MISC Name DE ICING Frequency 135.225 MHZ
Type TWR Name TWR Frequency 118.3 MHZ
Airport Navaids
Type VOR-DME Name Dusseldorf Frequency 115150 KHZ
Airport Weather Information & NOTAM
ADDS - METARS form results

(1058 UTC 31 October 2020)
Data provider http://aviationweather.gov/metar/data/
 
METAR text: EDDL 311050Z 17015KT 9999 FEW030 16/09 Q1019 NOSIG
Conditions at: EDDL (DUESSELDORF , DE) observed 1050 UTC 31 October 2020
Temperature: 16.0°C (61°F)
Dewpoint: 9.0°C (48°F) [RH = 63%]
Pressure (altimeter): 30.09 inches Hg (1019.0 mb)
Winds: from the S (170 degrees) at 17 MPH (15 knots; 7.7 m/s)
Visibility: 6 or more miles (10+ km)
Ceiling: at least 12,000 feet AGL
Clouds: few clouds at 3000 feet AGL
Weather: no significant weather observed at this time

METAR text: EDDL 311020Z 18013KT 140V210 9999 SCT028 16/08 Q1020 NOSIG
Conditions at: EDDL (DUESSELDORF , DE) observed 1020 UTC 31 October 2020
Temperature: 16.0°C (61°F)
Dewpoint: 8.0°C (46°F) [RH = 59%]
Pressure (altimeter): 30.12 inches Hg (1020.0 mb)
Winds: from the S (180 degrees) at 15 MPH (13 knots; 6.7 m/s)
Visibility: 6 or more miles (10+ km)
Ceiling: at least 12,000 feet AGL
Clouds: scattered clouds at 2800 feet AGL
Weather: no significant weather observed at this time

Forecast for: EDDL (DUESSELDORF , DE)
Text: TAF EDDL 310500Z 3106/0112 17007KT 9999 BKN025
Forecast period: 0600 to 0900 UTC 31 October 2020
Forecast type: FROM: standard forecast or significant change
Winds: from the S (170 degrees) at 8 MPH (7 knots; 3.6 m/s)
Visibility: 6 or more miles (10+ km)
Ceiling: 2500 feet AGL
Clouds: broken clouds at 2500 feet AGL
Weather: no significant weather forecast for this period
Text: BECMG 3109/3112 17012KT
Forecast period: 0900 UTC 31 October 2020 to 1200 UTC 01 November 2020
Forecast type: BECOMING: Conditions expected to become as follows by 1200 UTC 31 October 2020
Winds: from the S (170 degrees) at 14 MPH (12 knots; 6.2 m/s)
Visibility: 6 or more miles (10+ km)
Ceiling: 2500 feet AGL
Clouds: broken clouds at 2500 feet AGL
Weather: no significant weather forecast for this period